Terminal Aerodrome Forecast
Issued by NWS Sioux Falls, SD

Home | Current Version | Previous Version | Graphics & Text | Print | Product List | Glossary On
Versions: 1 2 3 4 5 6 7 8 9 10 11 12 13 14 15 16
646
FTUS43 KFSD 252320
TAFHON
TAF
KHON 252320Z 2600/2624 36016G24KT P6SM VCSH OVC015
     FM260400 35015G24KT P6SM OVC008
     FM261500 34016G25KT P6SM OVC010
     FM261900 34016G24KT P6SM OVC020=

USA.gov is the U.S. government's official web portal to all federal, state and local government web resources and services.